Terminal Aerodrome Forecast
Issued by NWS

Home | Current Version | Previous Version | Text Only | Print | Product List | Glossary Off
Versions: 1 2 3 4 5 6 7 8 9 10 11 12 13 14 15 16 17 18 19 20 21 22 23 24 25 26 27 28 29 30 31 32

053
FTUS43 KGRB 231140
TAFRHI
TAF
KRHI 231140Z 2312/2412 00000KT P6SM SCT002 BKN200
      TEMPO 2312/2313 1/4SM FG VV002
     FM231300 00000KT P6SM SCT009
     FM231400 14003KT P6SM SCT100 BKN200
     FM232000 16006KT P6SM SCT070 BKN100
     FM240100 17007KT P6SM SCT040 BKN070
      TEMPO 2402/2406 1SM TSRA BKN025CB
     FM240600 17007KT 6SM SHRA BKN025 OVC040
     FM240900 22007KT P6SM BKN018 OVC025=

USA.gov is the U.S. government's official web portal to all federal, state and local government web resources and services.